createdAt,value
2019-02-22T00:01:44.851Z,65.45
2019-02-22T00:04:12.031Z,64.72
2019-02-22T00:06:39.035Z,76.00
2019-02-22T00:09:06.630Z,68.28
2019-02-22T00:11:33.833Z,71.22
2019-02-22T00:14:01.005Z,65.62
2019-02-22T00:16:28.227Z,68.02
2019-02-22T00:18:55.414Z,68.92
2019-02-22T00:21:22.691Z,68.87
2019-02-22T00:23:49.881Z,78.45
2019-02-22T00:26:16.982Z,76.28
2019-02-22T00:28:44.272Z,67.82
2019-02-22T00:31:11.266Z,74.00
2019-02-22T00:33:38.438Z,76.40
2019-02-22T00:36:06.197Z,80.35
2019-02-22T00:38:33.458Z,74.97
2019-02-22T00:41:00.682Z,79.15
2019-02-22T00:43:27.853Z,77.60
2019-02-22T00:45:55.091Z,78.72
2019-02-22T00:48:24.097Z,78.60
2019-02-22T00:50:51.233Z,77.50
2019-02-22T00:53:18.499Z,81.15
2019-02-22T00:55:45.607Z,78.50
2019-02-22T00:58:12.861Z,74.20
2019-02-22T01:00:40.084Z,77.27
2019-02-22T01:03:09.170Z,73.50
2019-02-22T01:05:36.227Z,74.37
2019-02-22T01:08:03.301Z,74.00
2019-02-22T01:10:31.574Z,67.58
2019-02-22T01:12:58.971Z,76.55
2019-02-22T01:15:26.407Z,85.53
2019-02-22T01:17:54.726Z,71.80
2019-02-22T01:20:22.958Z,61.45
2019-02-22T01:22:51.159Z,62.35
2019-02-22T01:25:19.386Z,64.00
2019-02-22T01:27:47.582Z,67.32
2019-02-22T01:30:15.794Z,65.25
2019-02-22T01:32:43.982Z,58.25
2019-02-22T01:35:11.179Z,56.42
2019-02-22T01:37:39.403Z,61.65
2019-02-22T01:40:08.035Z,59.00
2019-02-22T01:42:36.308Z,54.95
2019-02-22T01:45:04.600Z,60.92
2019-02-22T01:47:32.787Z,58.42
2019-02-22T01:50:00.952Z,56.60
2019-02-22T01:52:29.015Z,56.45
2019-02-22T01:54:57.110Z,52.88
2019-02-22T01:57:25.215Z,56.75
2019-02-22T01:59:53.557Z,56.10
2019-02-22T02:02:22.122Z,54.25
2019-02-22T02:04:49.202Z,58.65
2019-02-22T02:07:19.521Z,54.80
2019-02-22T02:09:47.826Z,58.60
2019-02-22T02:12:16.001Z,54.98
2019-02-22T02:14:44.164Z,59.42
2019-02-22T02:17:12.336Z,55.70
2019-02-22T02:19:48.107Z,62.67
2019-02-22T02:22:15.262Z,57.83
2019-02-22T02:24:42.484Z,59.45
2019-02-22T02:27:09.594Z,55.58
2019-02-22T02:29:36.706Z,56.88
2019-02-22T02:32:03.887Z,59.05
2019-02-22T02:34:32.190Z,54.15
2019-02-22T02:37:00.722Z,64.97
2019-02-22T02:39:29.073Z,59.90
2019-02-22T02:41:57.396Z,62.88
2019-02-22T02:44:26.281Z,68.17
2019-02-22T02:46:54.886Z,64.77
2019-02-22T02:49:23.535Z,61.75
2019-02-22T02:51:52.563Z,66.30
2019-02-22T02:54:21.959Z,64.50
2019-02-22T02:56:50.158Z,65.28
2019-02-22T02:59:17.525Z,65.85
2019-02-22T03:01:46.420Z,69.60
2019-02-22T03:04:13.582Z,60.58
2019-02-22T03:06:56.019Z,59.30
2019-02-22T03:09:24.468Z,67.53
2019-02-22T03:11:52.697Z,63.33
2019-02-22T03:14:20.856Z,62.10
2019-02-22T03:16:49.030Z,55.43
2019-02-22T03:19:17.008Z,56.50
2019-02-22T03:21:45.204Z,59.45
2019-02-22T03:24:13.790Z,58.10
2019-02-22T03:26:42.119Z,58.20
2019-02-22T03:29:10.465Z,56.45
2019-02-22T03:31:39.000Z,56.45
2019-02-22T03:34:07.318Z,58.63
2019-02-22T03:36:37.680Z,54.15
2019-02-22T03:39:05.982Z,56.00
2019-02-22T03:41:34.197Z,62.00
2019-02-22T03:44:02.374Z,57.78
2019-02-22T03:46:30.571Z,55.90
2019-02-22T03:48:58.759Z,57.78
2019-02-22T03:51:26.944Z,53.85
2019-02-22T03:54:00.212Z,54.13
2019-02-22T03:56:27.416Z,48.73
2019-02-22T03:58:55.694Z,50.33
2019-02-22T04:01:23.940Z,53.45
2019-02-22T04:03:52.567Z,51.80
2019-02-22T04:06:19.776Z,53.33
2019-02-22T04:08:48.183Z,57.53
2019-02-22T04:11:16.346Z,54.35
2019-02-22T04:13:48.068Z,55.38
2019-02-22T04:16:15.235Z,56.88
2019-02-22T04:18:42.539Z,60.85
2019-02-22T04:21:09.630Z,60.30
2019-02-22T04:23:37.776Z,59.23
2019-02-22T04:26:05.945Z,56.33
2019-02-22T04:28:34.123Z,60.05
2019-02-22T04:31:02.231Z,60.50
2019-02-22T04:33:31.649Z,55.92
2019-02-22T04:35:59.735Z,53.73
2019-02-22T04:38:28.021Z,50.58
2019-02-22T04:40:56.331Z,54.70
2019-02-22T04:43:23.631Z,54.55
2019-02-22T04:45:51.807Z,50.30
2019-02-22T04:48:19.997Z,49.38
2019-02-22T04:50:48.640Z,51.37
2019-02-22T04:53:19.135Z,47.62
2019-02-22T04:55:47.305Z,51.00
2019-02-22T04:58:15.173Z,53.08
2019-02-22T05:00:44.546Z,52.83
2019-02-22T05:03:14.880Z,47.95
2019-02-22T05:05:42.335Z,51.48
2019-02-22T05:08:13.802Z,48.83
2019-02-22T05:10:42.467Z,48.98
2019-02-22T05:13:11.083Z,47.58
2019-02-22T05:15:39.971Z,51.25
2019-02-22T05:18:08.171Z,56.58
2019-02-22T05:20:37.146Z,53.05
2019-02-22T05:23:07.399Z,50.03
2019-02-22T05:25:36.042Z,52.67
2019-02-22T05:28:04.555Z,50.58
2019-02-22T05:30:32.037Z,51.20
2019-02-22T05:33:01.594Z,48.80
2019-02-22T05:35:29.621Z,50.25
2019-02-22T05:37:57.990Z,48.55
2019-02-22T05:40:30.310Z,47.70
2019-02-22T05:42:59.919Z,47.90
2019-02-22T05:45:27.643Z,50.52
2019-02-22T05:47:55.462Z,46.92
2019-02-22T05:50:26.338Z,49.55
2019-02-22T05:52:54.046Z,47.65
2019-02-22T05:55:22.938Z,48.05
2019-02-22T05:57:52.858Z,46.58
2019-02-22T06:00:21.740Z,47.67
2019-02-22T06:02:50.190Z,46.20
2019-02-22T06:05:18.505Z,46.45
2019-02-22T06:07:47.296Z,42.33
2019-02-22T06:10:15.266Z,47.43
2019-02-22T06:12:43.842Z,43.28
2019-02-22T06:15:11.378Z,51.35
2019-02-22T06:17:40.915Z,52.08
2019-02-22T06:20:09.119Z,46.48
2019-02-22T06:22:37.872Z,46.50
2019-02-22T06:25:06.836Z,48.70
2019-02-22T06:27:35.110Z,48.65
2019-02-22T06:30:03.780Z,47.08
2019-02-22T06:32:32.534Z,49.27
2019-02-22T06:35:00.802Z,49.75
2019-02-22T06:37:29.247Z,45.75
2019-02-22T06:39:59.210Z,43.28
2019-02-22T06:42:27.981Z,51.88
2019-02-22T06:44:56.237Z,48.23
2019-02-22T06:47:24.838Z,47.80
2019-02-22T06:49:53.639Z,46.73
2019-02-22T06:52:21.907Z,42.67
2019-02-22T06:54:50.218Z,43.35
2019-02-22T06:57:18.529Z,44.10
2019-02-22T06:59:47.181Z,45.73
2019-02-22T07:02:15.847Z,43.45
2019-02-22T07:04:44.006Z,44.30
2019-02-22T07:07:11.582Z,43.15
2019-02-22T07:09:40.982Z,46.28
2019-02-22T07:12:16.923Z,46.08
2019-02-22T07:14:44.763Z,48.30
2019-02-22T07:17:13.154Z,42.38
2019-02-22T07:19:41.758Z,43.90
2019-02-22T07:22:09.838Z,38.83
2019-02-22T07:24:38.922Z,45.23
2019-02-22T07:27:06.702Z,40.90
2019-02-22T07:29:34.799Z,46.80
2019-02-22T07:32:06.175Z,45.35
2019-02-22T07:34:33.196Z,41.88
2019-02-22T07:37:01.942Z,44.42
2019-02-22T07:39:34.282Z,41.33
2019-02-22T07:42:02.898Z,45.92
2019-02-22T07:44:34.659Z,40.80
2019-02-22T07:47:03.243Z,42.60
2019-02-22T07:49:32.239Z,42.00
2019-02-22T07:52:01.134Z,38.98
2019-02-22T07:54:29.625Z,43.00
2019-02-22T07:56:58.202Z,41.25
2019-02-22T07:59:26.674Z,40.95
2019-02-22T08:01:55.230Z,44.25
2019-02-22T08:04:23.229Z,43.25
2019-02-22T08:06:51.028Z,37.38
2019-02-22T08:09:20.398Z,43.02
2019-02-22T08:11:48.156Z,41.02
2019-02-22T08:14:17.155Z,47.38
2019-02-22T08:16:46.046Z,40.60
2019-02-22T08:19:14.479Z,47.08
2019-02-22T08:21:43.100Z,40.98
2019-02-22T08:24:10.615Z,45.60
2019-02-22T08:26:39.170Z,41.18
2019-02-22T08:29:07.845Z,35.40
2019-02-22T08:31:35.044Z,39.40
2019-02-22T08:34:03.583Z,39.35
2019-02-22T08:36:32.052Z,34.83
2019-02-22T08:39:00.653Z,39.63
2019-02-22T08:41:29.322Z,41.18
2019-02-22T08:43:57.416Z,39.40
2019-02-22T08:46:26.262Z,40.67
2019-02-22T08:48:54.784Z,42.70
2019-02-22T08:51:22.873Z,44.88
2019-02-22T08:53:52.058Z,40.95
2019-02-22T08:56:20.929Z,39.03
2019-02-22T08:58:50.015Z,37.03
2019-02-22T09:01:17.887Z,34.73
2019-02-22T09:03:50.731Z,40.48
2019-02-22T09:06:17.587Z,43.68
2019-02-22T09:08:45.381Z,43.40
2019-02-22T09:11:16.750Z,48.28
2019-02-22T09:13:45.718Z,41.28
2019-02-22T09:16:13.586Z,51.77
2019-02-22T09:18:42.383Z,51.60
2019-02-22T09:21:10.744Z,49.80
2019-02-22T09:23:42.991Z,46.77
2019-02-22T09:26:11.550Z,43.83
2019-02-22T09:28:40.233Z,53.20
2019-02-22T09:31:08.773Z,37.47
2019-02-22T09:33:37.895Z,43.30
2019-02-22T09:36:07.280Z,37.65
2019-02-22T09:38:36.135Z,48.90
2019-02-22T09:41:05.494Z,43.50
2019-02-22T09:43:34.159Z,45.23
2019-02-22T09:46:07.131Z,39.40
2019-02-22T09:48:36.481Z,30.53
2019-02-22T09:51:05.548Z,29.50
2019-02-22T09:53:35.239Z,30.23
2019-02-22T09:56:02.802Z,31.47
2019-02-22T09:58:34.483Z,29.70
2019-02-22T10:01:02.871Z,28.43
2019-02-22T10:03:31.122Z,30.30
2019-02-22T10:05:59.611Z,28.83
2019-02-22T10:08:27.722Z,31.20
2019-02-22T10:10:58.626Z,29.50
2019-02-22T10:13:26.370Z,31.93
2019-02-22T10:15:54.817Z,32.37
2019-02-22T10:18:21.902Z,31.87
2019-02-22T10:20:50.146Z,33.13
2019-02-22T10:23:23.800Z,31.87
2019-02-22T10:25:50.970Z,34.80
2019-02-22T10:28:19.055Z,35.60
2019-02-22T10:30:47.366Z,36.00
2019-02-22T10:33:15.663Z,41.53
2019-02-22T10:35:44.772Z,40.73
2019-02-22T10:38:14.050Z,35.60
2019-02-22T10:40:42.342Z,42.30
2019-02-22T10:43:09.807Z,34.50
2019-02-22T10:45:38.927Z,37.90
2019-02-22T10:48:09.191Z,34.07
2019-02-22T10:50:37.387Z,30.57
2019-02-22T10:53:05.471Z,27.00
2019-02-22T10:55:33.689Z,27.42
2019-02-22T10:58:01.462Z,33.45
2019-02-22T11:00:38.595Z,26.87
2019-02-22T11:03:07.188Z,24.37
2019-02-22T11:05:34.668Z,21.27
2019-02-22T11:08:02.875Z,24.30
2019-02-22T11:10:31.186Z,25.23
2019-02-22T11:13:01.523Z,23.57
2019-02-22T11:15:30.703Z,21.87
2019-02-22T11:17:58.572Z,23.70
2019-02-22T11:20:27.261Z,20.13
2019-02-22T11:22:55.719Z,21.90
2019-02-22T11:25:25.754Z,20.67
2019-02-22T11:27:54.758Z,22.03
2019-02-22T11:30:22.624Z,23.70
2019-02-22T11:32:51.602Z,20.77
2019-02-22T11:35:20.056Z,23.13
2019-02-22T11:37:50.614Z,21.17
2019-02-22T11:40:18.151Z,19.07
2019-02-22T11:42:47.172Z,22.73
2019-02-22T11:45:15.585Z,15.83
2019-02-22T11:47:43.665Z,16.03
2019-02-22T11:50:13.342Z,15.47
2019-02-22T11:52:42.616Z,17.00
2019-02-22T11:55:11.627Z,16.87
2019-02-22T11:57:39.159Z,16.90
2019-02-22T12:00:14.395Z,15.50
2019-02-22T12:02:45.168Z,20.40
2019-02-22T12:05:12.710Z,16.80
2019-02-22T12:07:40.139Z,19.20
2019-02-22T12:10:07.956Z,17.50
2019-02-22T12:12:41.098Z,16.17
2019-02-22T12:15:09.474Z,11.20
2019-02-22T12:17:38.513Z,11.23
2019-02-22T12:20:07.154Z,12.50
2019-02-22T12:22:36.167Z,11.37
2019-02-22T12:25:04.800Z,11.23
2019-02-22T12:27:33.566Z,12.20
2019-02-22T12:30:02.238Z,17.23
2019-02-22T12:32:31.551Z,14.00
2019-02-22T12:34:58.951Z,15.53
2019-02-22T12:37:28.566Z,15.93
2019-02-22T12:39:56.831Z,17.53
2019-02-22T12:42:25.038Z,18.60
2019-02-22T12:45:02.476Z,18.77
2019-02-22T12:47:22.655Z,23.13
2019-02-22T12:49:52.410Z,21.53
2019-02-22T12:52:20.938Z,22.87
2019-02-22T12:54:49.479Z,23.57
2019-02-22T12:57:16.974Z,23.67
2019-02-22T12:59:45.763Z,21.80
2019-02-22T13:02:18.140Z,20.13
2019-02-22T13:04:45.769Z,17.83
2019-02-22T13:07:13.267Z,19.23
2019-02-22T13:09:40.701Z,18.73
2019-02-22T13:12:14.039Z,19.47
2019-02-22T13:14:42.322Z,19.63
2019-02-22T13:17:11.630Z,22.20
2019-02-22T13:19:40.115Z,22.70
2019-02-22T13:22:07.830Z,23.20
2019-02-22T13:24:36.034Z,25.40
2019-02-22T13:27:04.826Z,23.27
2019-02-22T13:29:48.960Z,27.17
2019-02-22T13:32:16.975Z,20.03
2019-02-22T13:34:44.199Z,20.30
2019-02-22T13:37:13.147Z,21.33
2019-02-22T13:39:41.350Z,22.10
2019-02-22T13:42:09.354Z,22.67
2019-02-22T13:44:37.543Z,20.67
2019-02-22T13:47:04.721Z,16.73
2019-02-22T13:49:32.306Z,27.00
2019-02-22T13:52:04.411Z,20.70
2019-02-22T13:54:32.446Z,21.40
2019-02-22T13:56:59.859Z,20.60
2019-02-22T13:59:27.239Z,18.97
2019-02-22T14:01:54.394Z,21.77
2019-02-22T14:04:26.075Z,21.23
2019-02-22T14:06:53.291Z,22.43
2019-02-22T14:09:21.113Z,24.80
2019-02-22T14:11:48.383Z,23.30
2019-02-22T14:14:15.546Z,23.17
2019-02-22T14:16:42.614Z,21.60
2019-02-22T14:19:13.082Z,22.97
2019-02-22T14:21:43.051Z,23.37
2019-02-22T14:24:10.193Z,24.80
2019-02-22T14:26:37.393Z,23.57
2019-02-22T14:29:05.566Z,21.37
2019-02-22T14:31:38.251Z,23.27
2019-02-22T14:34:05.319Z,20.17
2019-02-22T14:36:33.782Z,22.13
2019-02-22T14:39:01.038Z,20.40
2019-02-22T14:41:29.515Z,22.57
2019-02-22T14:44:01.527Z,23.50
2019-02-22T14:46:29.890Z,19.83
2019-02-22T14:48:58.205Z,23.50
2019-02-22T14:51:25.367Z,23.77
2019-02-22T14:53:53.578Z,23.13
2019-02-22T14:56:27.346Z,20.40
2019-02-22T14:58:55.543Z,19.60
2019-02-22T15:01:26.724Z,26.73
2019-02-22T15:03:54.979Z,20.13
2019-02-22T15:06:23.459Z,22.27
2019-02-22T15:08:55.764Z,21.03
2019-02-22T15:11:24.109Z,24.73
2019-02-22T15:13:52.484Z,23.93
2019-02-22T15:16:47.301Z,29.87
2019-02-22T15:19:14.914Z,26.00
2019-02-22T15:21:42.147Z,26.50
2019-02-22T15:24:09.291Z,22.10
2019-02-22T15:26:39.244Z,24.93
2019-02-22T15:29:06.708Z,22.83
2019-02-22T15:31:36.352Z,21.10
2019-02-22T15:34:03.347Z,21.40
2019-02-22T15:36:30.755Z,20.67
2019-02-22T15:39:04.284Z,23.17
2019-02-22T15:41:35.431Z,21.90
2019-02-22T15:44:05.474Z,25.90
2019-02-22T15:46:32.395Z,23.50
2019-02-22T15:49:05.990Z,25.10
2019-02-22T15:51:33.829Z,26.30
2019-02-22T15:54:01.126Z,26.57
2019-02-22T15:56:29.102Z,27.00
2019-02-22T15:58:56.854Z,25.00
2019-02-22T16:01:29.358Z,29.20
2019-02-22T16:04:20.481Z,29.13
2019-02-22T16:06:49.508Z,24.90
2019-02-22T16:09:16.584Z,30.47
2019-02-22T16:11:44.336Z,27.37
2019-02-22T16:14:12.019Z,29.00
2019-02-22T16:16:39.250Z,28.90
2019-02-22T16:19:12.617Z,24.97
2019-02-22T16:21:39.814Z,26.95
2019-02-22T16:24:07.930Z,26.00
2019-02-22T16:26:35.435Z,31.25
2019-02-22T16:29:02.911Z,26.50
2019-02-22T16:31:35.576Z,29.77
2019-02-22T16:34:02.831Z,23.67
2019-02-22T16:36:31.730Z,27.10
2019-02-22T16:38:58.978Z,23.67
2019-02-22T16:41:41.477Z,28.70
2019-02-22T16:44:09.047Z,30.30
2019-02-22T16:46:40.725Z,25.87
2019-02-22T16:49:07.891Z,25.67
2019-02-22T16:51:35.054Z,26.70
2019-02-22T16:54:02.246Z,25.37
2019-02-22T16:56:29.415Z,30.00
2019-02-22T16:58:56.621Z,29.40
2019-02-22T17:04:41.363Z,29.57
2019-02-22T17:07:09.534Z,28.97
2019-02-22T17:09:37.756Z,30.67
2019-02-22T17:12:06.869Z,31.40
2019-02-22T17:14:35.361Z,30.87
2019-02-22T17:17:03.950Z,37.17
2019-02-22T17:19:32.266Z,37.33
2019-02-22T17:22:00.653Z,40.67
2019-02-22T17:24:29.090Z,33.57
2019-02-22T17:26:57.593Z,34.30
2019-02-22T17:29:26.054Z,34.30
2019-02-22T17:31:54.489Z,34.43
2019-02-22T17:34:22.809Z,32.77
2019-02-22T17:36:51.109Z,35.33
2019-02-22T17:39:19.328Z,33.38
2019-02-22T17:41:47.603Z,31.40
2019-02-22T17:44:15.817Z,33.40
2019-02-22T17:46:44.056Z,27.97
2019-02-22T17:49:12.906Z,34.03
2019-02-22T17:51:41.427Z,31.43
2019-02-22T17:54:10.244Z,29.73
2019-02-22T17:56:39.207Z,33.57
2019-02-22T17:59:08.543Z,31.57
2019-02-22T18:01:37.211Z,34.05
2019-02-22T18:04:05.662Z,32.55
2019-02-22T18:06:34.147Z,28.67
2019-02-22T18:09:04.203Z,27.22
2019-02-22T18:11:32.574Z,29.50
2019-02-22T18:14:01.674Z,29.57
2019-02-22T18:16:30.059Z,28.87
2019-02-22T18:18:58.855Z,26.37
2019-02-22T18:21:27.602Z,26.73
2019-02-22T18:23:56.092Z,31.48
2019-02-22T18:26:24.318Z,30.80
2019-02-22T18:28:52.653Z,24.80
2019-02-22T18:31:21.094Z,36.83
2019-02-22T18:33:49.334Z,30.48
2019-02-22T18:36:18.135Z,29.30
2019-02-22T18:38:46.292Z,28.07
2019-02-22T18:41:14.980Z,31.17
2019-02-22T18:43:43.773Z,28.47
2019-02-22T18:46:11.774Z,29.70
2019-02-22T18:48:40.610Z,36.40
2019-02-22T18:51:09.813Z,32.40
2019-02-22T18:53:38.339Z,29.95
2019-02-22T18:56:06.874Z,29.07
2019-02-22T18:58:36.791Z,30.08
2019-02-22T19:01:05.742Z,29.10
2019-02-22T19:03:34.608Z,29.80
2019-02-22T19:06:03.050Z,29.10
2019-02-22T19:08:32.684Z,31.68
2019-02-22T19:11:01.830Z,33.67
2019-02-22T19:13:30.146Z,32.23
2019-02-22T19:15:59.146Z,29.30
2019-02-22T19:18:30.110Z,33.13
2019-02-22T19:21:00.678Z,30.02
2019-02-22T19:23:28.855Z,32.38
2019-02-22T19:25:57.363Z,25.20
2019-02-22T19:28:26.578Z,29.23
2019-02-22T19:30:55.697Z,26.35
2019-02-22T19:33:24.372Z,25.40
2019-02-22T19:36:05.433Z,24.98
2019-02-22T19:38:49.374Z,26.80
2019-02-22T19:41:19.198Z,23.55
2019-02-22T19:43:47.382Z,23.57
2019-02-22T19:46:16.106Z,22.73
2019-02-22T19:48:44.346Z,24.10
2019-02-22T19:51:12.558Z,23.98
2019-02-22T19:53:40.650Z,29.57
2019-02-22T19:56:08.873Z,25.00
2019-02-22T19:58:37.425Z,19.85
2019-02-22T20:01:05.638Z,22.73
2019-02-22T20:03:33.960Z,21.27
2019-02-22T20:06:02.350Z,21.95
2019-02-22T20:08:30.909Z,19.60
2019-02-22T20:10:59.448Z,25.48
2019-02-22T20:13:27.762Z,22.95
2019-02-22T20:15:56.180Z,20.55
2019-02-22T20:18:25.214Z,21.48
2019-02-22T20:20:53.655Z,22.70
2019-02-22T20:23:21.887Z,23.00
2019-02-22T20:25:50.168Z,20.90
2019-02-22T20:28:18.351Z,25.08
2019-02-22T20:30:46.626Z,21.37
2019-02-22T20:33:14.970Z,19.07
2019-02-22T20:35:45.542Z,19.10
2019-02-22T20:38:14.442Z,19.42
2019-02-22T20:40:42.934Z,21.33
2019-02-22T20:43:11.403Z,19.92
2019-02-22T20:45:40.096Z,18.70
2019-02-22T20:48:08.475Z,18.60
2019-02-22T20:50:36.877Z,20.25
2019-02-22T20:53:05.639Z,21.10
2019-02-22T20:55:34.349Z,18.12
2019-02-22T20:58:02.587Z,21.33
2019-02-22T21:00:32.875Z,18.48
2019-02-22T21:03:02.653Z,18.80
2019-02-22T21:05:31.448Z,24.27
2019-02-22T21:07:59.881Z,18.00
2019-02-22T21:10:28.804Z,20.48
2019-02-22T21:12:57.907Z,21.40
2019-02-22T21:15:26.486Z,18.48
2019-02-22T21:17:55.361Z,19.62
2019-02-22T21:20:23.763Z,20.23
2019-02-22T21:22:53.583Z,22.13
2019-02-22T21:25:22.425Z,23.35
2019-02-22T21:27:50.782Z,24.90
2019-02-22T21:30:19.346Z,21.65
2019-02-22T21:32:48.342Z,21.48
2019-02-22T21:35:17.523Z,28.70
2019-02-22T21:37:46.638Z,22.25
2019-02-22T21:40:15.107Z,23.35
2019-02-22T21:42:43.554Z,25.25
2019-02-22T21:45:12.573Z,22.13
2019-02-22T21:47:41.450Z,23.67
2019-02-22T21:50:11.629Z,24.35
2019-02-22T21:52:47.574Z,20.95
2019-02-22T21:55:15.830Z,26.48
2019-02-22T21:57:44.002Z,22.82
2019-02-22T22:00:16.666Z,22.62
2019-02-22T22:02:47.374Z,24.05
2019-02-22T22:05:16.086Z,25.82
2019-02-22T22:07:45.958Z,24.00
2019-02-22T22:10:23.065Z,24.12
2019-02-22T22:12:50.496Z,24.52
2019-02-22T22:15:25.658Z,30.70
2019-02-22T22:17:53.753Z,26.30
2019-02-22T22:20:21.621Z,27.20
2019-02-22T22:22:50.206Z,32.67
2019-02-22T22:25:18.347Z,26.02
2019-02-22T22:27:54.715Z,33.90
2019-02-22T22:30:26.814Z,22.20
2019-02-22T22:32:54.837Z,30.37
2019-02-22T22:35:31.553Z,25.95
2019-02-22T22:38:05.338Z,28.87
2019-02-22T22:40:33.058Z,28.52
2019-02-22T22:43:02.735Z,27.42
2019-02-22T22:45:30.724Z,30.55
2019-02-22T22:47:58.267Z,27.55
2019-02-22T22:50:25.754Z,32.42
2019-02-22T22:52:53.597Z,24.25
2019-02-22T22:55:21.316Z,30.43
2019-02-22T22:57:49.018Z,31.00
2019-02-22T23:00:35.529Z,30.80
2019-02-22T23:03:03.459Z,28.87
2019-02-22T23:05:39.600Z,31.37
2019-02-22T23:08:06.754Z,32.70
2019-02-22T23:10:41.911Z,25.43
2019-02-22T23:13:09.102Z,24.72
2019-02-22T23:15:37.265Z,27.25
2019-02-22T23:18:06.582Z,30.05
2019-02-22T23:20:35.365Z,26.97
2019-02-22T23:23:06.213Z,27.25
2019-02-22T23:25:35.025Z,27.13
2019-02-22T23:28:03.886Z,24.15
2019-02-22T23:30:36.786Z,33.78
2019-02-22T23:33:05.280Z,28.17
2019-02-22T23:35:39.887Z,26.05
2019-02-22T23:38:12.969Z,28.30
2019-02-22T23:40:40.218Z,29.55
2019-02-22T23:43:08.093Z,35.35
2019-02-22T23:45:36.911Z,28.45
2019-02-22T23:48:05.338Z,27.50
2019-02-22T23:50:33.515Z,30.20
2019-02-22T23:53:02.087Z,29.25
2019-02-22T23:55:30.346Z,30.82
2019-02-22T23:57:57.562Z,31.75
